sensor_id;sensor_type;location;lat;lon;timestamp;P1;durP1;ratioP1;P2;durP2;ratioP2
58468;SDS011;44257;44.804;10.220;2024-01-27T00:00:42;117.15;;;48.05;;
58468;SDS011;44257;44.804;10.220;2024-01-27T00:03:08;217.02;;;42.45;;
58468;SDS011;44257;44.804;10.220;2024-01-27T00:05:34;181.75;;;51.92;;
58468;SDS011;44257;44.804;10.220;2024-01-27T00:08:00;75.65;;;44.95;;
58468;SDS011;44257;44.804;10.220;2024-01-27T00:10:25;116.35;;;45.88;;
58468;SDS011;44257;44.804;10.220;2024-01-27T00:12:51;162.02;;;46.13;;
58468;SDS011;44257;44.804;10.220;2024-01-27T00:15:17;126.90;;;42.15;;
58468;SDS011;44257;44.804;10.220;2024-01-27T00:17:43;125.97;;;39.13;;
58468;SDS011;44257;44.804;10.220;2024-01-27T00:20:09;107.65;;;36.50;;
58468;SDS011;44257;44.804;10.220;2024-01-27T00:22:35;116.65;;;38.03;;
58468;SDS011;44257;44.804;10.220;2024-01-27T00:25:01;85.07;;;33.13;;
58468;SDS011;44257;44.804;10.220;2024-01-27T00:27:27;79.45;;;34.35;;
58468;SDS011;44257;44.804;10.220;2024-01-27T00:29:53;58.95;;;33.00;;
58468;SDS011;44257;44.804;10.220;2024-01-27T00:32:19;87.88;;;33.95;;
58468;SDS011;44257;44.804;10.220;2024-01-27T00:34:45;57.92;;;32.17;;
58468;SDS011;44257;44.804;10.220;2024-01-27T00:37:11;68.47;;;32.05;;
58468;SDS011;44257;44.804;10.220;2024-01-27T00:39:37;54.60;;;30.17;;
58468;SDS011;44257;44.804;10.220;2024-01-27T00:42:03;59.85;;;31.00;;
58468;SDS011;44257;44.804;10.220;2024-01-27T00:44:29;64.93;;;30.83;;
58468;SDS011;44257;44.804;10.220;2024-01-27T00:46:54;91.35;;;33.03;;
58468;SDS011;44257;44.804;10.220;2024-01-27T00:49:20;67.18;;;30.88;;
58468;SDS011;44257;44.804;10.220;2024-01-27T00:51:46;67.18;;;31.13;;
58468;SDS011;44257;44.804;10.220;2024-01-27T00:54:12;45.60;;;28.17;;
58468;SDS011;44257;44.804;10.220;2024-01-27T00:56:38;57.17;;;29.05;;
58468;SDS011;44257;44.804;10.220;2024-01-27T00:59:04;47.72;;;28.00;;
58468;SDS011;44257;44.804;10.220;2024-01-27T01:01:30;59.97;;;29.73;;
58468;SDS011;44257;44.804;10.220;2024-01-27T01:03:55;66.90;;;28.38;;
58468;SDS011;44257;44.804;10.220;2024-01-27T01:06:23;65.63;;;30.33;;
58468;SDS011;44257;44.804;10.220;2024-01-27T01:08:48;52.65;;;28.77;;
58468;SDS011;44257;44.804;10.220;2024-01-27T01:11:14;46.15;;;27.65;;
58468;SDS011;44257;44.804;10.220;2024-01-27T01:13:41;48.25;;;28.67;;
58468;SDS011;44257;44.804;10.220;2024-01-27T01:16:06;53.03;;;29.40;;
58468;SDS011;44257;44.804;10.220;2024-01-27T01:18:33;52.75;;;29.85;;
58468;SDS011;44257;44.804;10.220;2024-01-27T01:20:59;56.05;;;29.77;;
58468;SDS011;44257;44.804;10.220;2024-01-27T01:23:25;55.13;;;31.77;;
58468;SDS011;44257;44.804;10.220;2024-01-27T01:25:51;56.80;;;32.10;;
58468;SDS011;44257;44.804;10.220;2024-01-27T01:28:17;68.32;;;32.78;;
58468;SDS011;44257;44.804;10.220;2024-01-27T01:30:42;56.35;;;33.25;;
58468;SDS011;44257;44.804;10.220;2024-01-27T01:33:10;56.97;;;34.90;;
58468;SDS011;44257;44.804;10.220;2024-01-27T01:35:36;53.35;;;33.33;;
58468;SDS011;44257;44.804;10.220;2024-01-27T01:38:03;52.15;;;32.25;;
58468;SDS011;44257;44.804;10.220;2024-01-27T01:40:29;53.03;;;32.22;;
58468;SDS011;44257;44.804;10.220;2024-01-27T01:42:54;54.75;;;34.53;;
58468;SDS011;44257;44.804;10.220;2024-01-27T01:45:20;57.35;;;34.00;;
58468;SDS011;44257;44.804;10.220;2024-01-27T01:47:46;54.92;;;33.78;;
58468;SDS011;44257;44.804;10.220;2024-01-27T01:50:12;56.00;;;33.42;;
58468;SDS011;44257;44.804;10.220;2024-01-27T01:52:38;60.60;;;36.10;;
58468;SDS011;44257;44.804;10.220;2024-01-27T01:55:04;60.70;;;34.40;;
58468;SDS011;44257;44.804;10.220;2024-01-27T01:57:31;58.35;;;34.85;;
58468;SDS011;44257;44.804;10.220;2024-01-27T01:59:58;64.25;;;37.38;;
58468;SDS011;44257;44.804;10.220;2024-01-27T02:02:24;65.15;;;38.05;;
58468;SDS011;44257;44.804;10.220;2024-01-27T02:04:50;66.25;;;37.45;;
58468;SDS011;44257;44.804;10.220;2024-01-27T02:07:16;66.07;;;37.90;;
58468;SDS011;44257;44.804;10.220;2024-01-27T02:09:42;67.15;;;36.97;;
58468;SDS011;44257;44.804;10.220;2024-01-27T02:12:07;63.28;;;36.53;;
58468;SDS011;44257;44.804;10.220;2024-01-27T02:14:33;70.10;;;38.80;;
58468;SDS011;44257;44.804;10.220;2024-01-27T02:16:59;66.47;;;36.75;;
58468;SDS011;44257;44.804;10.220;2024-01-27T02:19:25;62.92;;;36.95;;
58468;SDS011;44257;44.804;10.220;2024-01-27T02:21:51;65.53;;;36.53;;
58468;SDS011;44257;44.804;10.220;2024-01-27T02:24:17;65.45;;;36.38;;
58468;SDS011;44257;44.804;10.220;2024-01-27T02:26:43;63.80;;;35.70;;
58468;SDS011;44257;44.804;10.220;2024-01-27T02:29:08;61.97;;;34.40;;
58468;SDS011;44257;44.804;10.220;2024-01-27T02:31:34;64.35;;;32.95;;
58468;SDS011;44257;44.804;10.220;2024-01-27T02:34:00;56.67;;;31.52;;
58468;SDS011;44257;44.804;10.220;2024-01-27T02:36:26;58.00;;;31.33;;
58468;SDS011;44257;44.804;10.220;2024-01-27T02:38:52;57.75;;;30.65;;
58468;SDS011;44257;44.804;10.220;2024-01-27T02:41:18;55.70;;;29.70;;
58468;SDS011;44257;44.804;10.220;2024-01-27T02:43:44;53.88;;;29.63;;
58468;SDS011;44257;44.804;10.220;2024-01-27T02:46:11;54.22;;;30.95;;
58468;SDS011;44257;44.804;10.220;2024-01-27T02:48:41;52.90;;;26.67;;
58468;SDS011;44257;44.804;10.220;2024-01-27T02:51:07;51.08;;;28.00;;
58468;SDS011;44257;44.804;10.220;2024-01-27T02:53:33;48.38;;;26.85;;
58468;SDS011;44257;44.804;10.220;2024-01-27T02:55:59;47.63;;;28.30;;
58468;SDS011;44257;44.804;10.220;2024-01-27T02:58:25;54.22;;;28.00;;
58468;SDS011;44257;44.804;10.220;2024-01-27T03:00:51;45.13;;;25.38;;
58468;SDS011;44257;44.804;10.220;2024-01-27T03:03:17;40.08;;;22.30;;
58468;SDS011;44257;44.804;10.220;2024-01-27T03:05:43;45.22;;;22.55;;
58468;SDS011;44257;44.804;10.220;2024-01-27T03:08:09;37.78;;;21.30;;
58468;SDS011;44257;44.804;10.220;2024-01-27T03:10:35;39.33;;;20.75;;
58468;SDS011;44257;44.804;10.220;2024-01-27T03:13:00;34.58;;;19.88;;
58468;SDS011;44257;44.804;10.220;2024-01-27T03:15:26;39.42;;;20.00;;
58468;SDS011;44257;44.804;10.220;2024-01-27T03:17:52;36.47;;;19.08;;
58468;SDS011;44257;44.804;10.220;2024-01-27T03:20:18;35.53;;;20.23;;
58468;SDS011;44257;44.804;10.220;2024-01-27T03:22:44;36.67;;;20.42;;
58468;SDS011;44257;44.804;10.220;2024-01-27T03:25:10;33.47;;;20.15;;
58468;SDS011;44257;44.804;10.220;2024-01-27T03:27:36;39.42;;;20.88;;
58468;SDS011;44257;44.804;10.220;2024-01-27T03:30:02;38.85;;;20.90;;
58468;SDS011;44257;44.804;10.220;2024-01-27T03:32:29;37.50;;;20.42;;
58468;SDS011;44257;44.804;10.220;2024-01-27T03:35:01;34.65;;;19.75;;
58468;SDS011;44257;44.804;10.220;2024-01-27T03:37:27;36.15;;;20.85;;
58468;SDS011;44257;44.804;10.220;2024-01-27T03:39:53;36.47;;;20.63;;
58468;SDS011;44257;44.804;10.220;2024-01-27T03:42:19;38.40;;;20.50;;
58468;SDS011;44257;44.804;10.220;2024-01-27T03:44:45;37.33;;;20.15;;
58468;SDS011;44257;44.804;10.220;2024-01-27T03:47:11;32.95;;;19.08;;
58468;SDS011;44257;44.804;10.220;2024-01-27T03:49:37;32.40;;;17.55;;
58468;SDS011;44257;44.804;10.220;2024-01-27T03:52:03;30.10;;;17.15;;
58468;SDS011;44257;44.804;10.220;2024-01-27T03:54:29;31.48;;;17.77;;
58468;SDS011;44257;44.804;10.220;2024-01-27T03:56:55;29.52;;;16.80;;
58468;SDS011;44257;44.804;10.220;2024-01-27T03:59:21;28.73;;;16.98;;
58468;SDS011;44257;44.804;10.220;2024-01-27T04:01:47;29.65;;;17.00;;
58468;SDS011;44257;44.804;10.220;2024-01-27T04:04:13;24.85;;;14.25;;
58468;SDS011;44257;44.804;10.220;2024-01-27T04:06:39;29.23;;;15.32;;
58468;SDS011;44257;44.804;10.220;2024-01-27T04:09:05;26.23;;;15.23;;
58468;SDS011;44257;44.804;10.220;2024-01-27T04:11:35;23.65;;;13.95;;
58468;SDS011;44257;44.804;10.220;2024-01-27T04:14:02;26.70;;;14.52;;
58468;SDS011;44257;44.804;10.220;2024-01-27T04:16:29;23.33;;;13.43;;
58468;SDS011;44257;44.804;10.220;2024-01-27T04:18:55;19.95;;;13.13;;
58468;SDS011;44257;44.804;10.220;2024-01-27T04:21:21;18.38;;;12.07;;
58468;SDS011;44257;44.804;10.220;2024-01-27T04:23:46;23.85;;;12.52;;
58468;SDS011;44257;44.804;10.220;2024-01-27T04:26:12;20.85;;;12.05;;
58468;SDS011;44257;44.804;10.220;2024-01-27T04:28:38;21.98;;;12.90;;
58468;SDS011;44257;44.804;10.220;2024-01-27T04:31:04;20.85;;;13.00;;
58468;SDS011;44257;44.804;10.220;2024-01-27T04:33:30;22.75;;;13.25;;
58468;SDS011;44257;44.804;10.220;2024-01-27T04:35:56;21.60;;;12.15;;
58468;SDS011;44257;44.804;10.220;2024-01-27T04:38:22;18.23;;;11.90;;
58468;SDS011;44257;44.804;10.220;2024-01-27T04:40:49;20.08;;;11.75;;
58468;SDS011;44257;44.804;10.220;2024-01-27T04:43:16;19.98;;;12.15;;
58468;SDS011;44257;44.804;10.220;2024-01-27T04:45:43;19.75;;;12.68;;
58468;SDS011;44257;44.804;10.220;2024-01-27T04:48:09;22.08;;;11.70;;
58468;SDS011;44257;44.804;10.220;2024-01-27T04:50:35;18.30;;;11.77;;
58468;SDS011;44257;44.804;10.220;2024-01-27T04:53:01;22.77;;;11.73;;
58468;SDS011;44257;44.804;10.220;2024-01-27T04:55:27;17.30;;;10.90;;
58468;SDS011;44257;44.804;10.220;2024-01-27T04:57:53;19.65;;;10.82;;
58468;SDS011;44257;44.804;10.220;2024-01-27T05:00:19;32.47;;;16.92;;
58468;SDS011;44257;44.804;10.220;2024-01-27T05:02:45;42.50;;;23.45;;
58468;SDS011;44257;44.804;10.220;2024-01-27T05:05:11;98.80;;;37.35;;
58468;SDS011;44257;44.804;10.220;2024-01-27T05:07:38;110.10;;;40.90;;
58468;SDS011;44257;44.804;10.220;2024-01-27T05:10:04;135.88;;;41.55;;
58468;SDS011;44257;44.804;10.220;2024-01-27T05:12:31;86.22;;;40.35;;
58468;SDS011;44257;44.804;10.220;2024-01-27T05:14:56;99.82;;;42.72;;
58468;SDS011;44257;44.804;10.220;2024-01-27T05:17:22;77.68;;;41.25;;
58468;SDS011;44257;44.804;10.220;2024-01-27T05:19:51;95.38;;;41.90;;
58468;SDS011;44257;44.804;10.220;2024-01-27T05:22:17;105.28;;;42.17;;
58468;SDS011;44257;44.804;10.220;2024-01-27T05:24:43;105.28;;;42.13;;
58468;SDS011;44257;44.804;10.220;2024-01-27T05:27:09;119.93;;;43.30;;
58468;SDS011;44257;44.804;10.220;2024-01-27T05:29:36;118.43;;;45.50;;
58468;SDS011;44257;44.804;10.220;2024-01-27T05:32:03;86.05;;;43.75;;
58468;SDS011;44257;44.804;10.220;2024-01-27T05:34:29;114.57;;;47.50;;
58468;SDS011;44257;44.804;10.220;2024-01-27T05:36:54;104.60;;;46.83;;
58468;SDS011;44257;44.804;10.220;2024-01-27T05:39:20;110.53;;;48.85;;
58468;SDS011;44257;44.804;10.220;2024-01-27T05:41:46;113.45;;;50.95;;
58468;SDS011;44257;44.804;10.220;2024-01-27T05:44:12;93.95;;;48.55;;
58468;SDS011;44257;44.804;10.220;2024-01-27T05:46:38;106.03;;;51.65;;
58468;SDS011;44257;44.804;10.220;2024-01-27T05:49:04;142.70;;;51.38;;
58468;SDS011;44257;44.804;10.220;2024-01-27T05:51:29;83.38;;;45.17;;
58468;SDS011;44257;44.804;10.220;2024-01-27T05:53:55;99.07;;;46.88;;
58468;SDS011;44257;44.804;10.220;2024-01-27T05:56:21;100.63;;;45.58;;
58468;SDS011;44257;44.804;10.220;2024-01-27T05:58:47;143.75;;;49.35;;
58468;SDS011;44257;44.804;10.220;2024-01-27T06:01:13;113.05;;;47.67;;
58468;SDS011;44257;44.804;10.220;2024-01-27T06:03:43;138.45;;;46.13;;
58468;SDS011;44257;44.804;10.220;2024-01-27T06:06:09;158.15;;;49.10;;
58468;SDS011;44257;44.804;10.220;2024-01-27T06:08:35;317.75;;;59.72;;
58468;SDS011;44257;44.804;10.220;2024-01-27T06:11:01;90.47;;;43.22;;
58468;SDS011;44257;44.804;10.220;2024-01-27T06:13:28;117.00;;;46.90;;
58468;SDS011;44257;44.804;10.220;2024-01-27T06:15:54;136.05;;;48.60;;
58468;SDS011;44257;44.804;10.220;2024-01-27T06:18:20;179.23;;;51.65;;
58468;SDS011;44257;44.804;10.220;2024-01-27T06:20:46;203.57;;;52.78;;
58468;SDS011;44257;44.804;10.220;2024-01-27T06:23:12;144.68;;;52.88;;
58468;SDS011;44257;44.804;10.220;2024-01-27T06:25:38;176.82;;;55.65;;
58468;SDS011;44257;44.804;10.220;2024-01-27T06:28:05;203.35;;;53.97;;
58468;SDS011;44257;44.804;10.220;2024-01-27T06:30:31;231.05;;;57.65;;
58468;SDS011;44257;44.804;10.220;2024-01-27T06:32:56;175.23;;;56.40;;
58468;SDS011;44257;44.804;10.220;2024-01-27T06:35:22;147.15;;;53.28;;
58468;SDS011;44257;44.804;10.220;2024-01-27T06:37:48;199.73;;;57.60;;
58468;SDS011;44257;44.804;10.220;2024-01-27T06:40:15;143.38;;;53.10;;
58468;SDS011;44257;44.804;10.220;2024-01-27T06:42:41;113.20;;;51.75;;
58468;SDS011;44257;44.804;10.220;2024-01-27T06:45:07;145.80;;;54.75;;
58468;SDS011;44257;44.804;10.220;2024-01-27T06:47:33;122.55;;;53.78;;
58468;SDS011;44257;44.804;10.220;2024-01-27T06:49:59;159.18;;;55.78;;
58468;SDS011;44257;44.804;10.220;2024-01-27T06:52:25;159.20;;;54.20;;
58468;SDS011;44257;44.804;10.220;2024-01-27T06:54:50;158.30;;;53.03;;
58468;SDS011;44257;44.804;10.220;2024-01-27T06:57:20;127.93;;;52.85;;
58468;SDS011;44257;44.804;10.220;2024-01-27T06:59:47;161.15;;;55.40;;
58468;SDS011;44257;44.804;10.220;2024-01-27T07:04:54;141.02;;;53.55;;
58468;SDS011;44257;44.804;10.220;2024-01-27T07:07:25;181.77;;;62.10;;
58468;SDS011;44257;44.804;10.220;2024-01-27T07:09:53;148.38;;;63.65;;
58468;SDS011;44257;44.804;10.220;2024-01-27T07:12:22;103.43;;;59.15;;
58468;SDS011;44257;44.804;10.220;2024-01-27T07:14:49;172.75;;;62.88;;
58468;SDS011;44257;44.804;10.220;2024-01-27T07:17:16;238.23;;;74.25;;
58468;SDS011;44257;44.804;10.220;2024-01-27T07:19:42;106.68;;;56.88;;
58468;SDS011;44257;44.804;10.220;2024-01-27T07:22:08;241.52;;;69.53;;
58468;SDS011;44257;44.804;10.220;2024-01-27T07:24:34;143.50;;;62.33;;
58468;SDS011;44257;44.804;10.220;2024-01-27T07:27:00;227.00;;;68.28;;
58468;SDS011;44257;44.804;10.220;2024-01-27T07:29:26;149.30;;;61.65;;
58468;SDS011;44257;44.804;10.220;2024-01-27T07:31:53;97.20;;;56.58;;
58468;SDS011;44257;44.804;10.220;2024-01-27T07:34:19;133.25;;;61.42;;
58468;SDS011;44257;44.804;10.220;2024-01-27T07:36:44;100.18;;;55.28;;
58468;SDS011;44257;44.804;10.220;2024-01-27T07:39:11;166.52;;;62.83;;
58468;SDS011;44257;44.804;10.220;2024-01-27T07:41:36;159.02;;;62.00;;
58468;SDS011;44257;44.804;10.220;2024-01-27T07:44:09;222.32;;;68.57;;
58468;SDS011;44257;44.804;10.220;2024-01-27T07:46:36;137.63;;;59.17;;
58468;SDS011;44257;44.804;10.220;2024-01-27T07:49:08;126.18;;;57.13;;
58468;SDS011;44257;44.804;10.220;2024-01-27T07:51:34;119.20;;;55.97;;
58468;SDS011;44257;44.804;10.220;2024-01-27T07:54:00;105.63;;;56.05;;
58468;SDS011;44257;44.804;10.220;2024-01-27T07:56:26;127.63;;;61.55;;
58468;SDS011;44257;44.804;10.220;2024-01-27T07:58:52;133.23;;;56.85;;
58468;SDS011;44257;44.804;10.220;2024-01-27T08:01:19;113.13;;;55.80;;
58468;SDS011;44257;44.804;10.220;2024-01-27T08:03:45;95.22;;;55.50;;
58468;SDS011;44257;44.804;10.220;2024-01-27T08:06:14;124.32;;;59.65;;
58468;SDS011;44257;44.804;10.220;2024-01-27T08:08:47;123.88;;;56.38;;
58468;SDS011;44257;44.804;10.220;2024-01-27T08:11:13;149.25;;;57.45;;
58468;SDS011;44257;44.804;10.220;2024-01-27T08:13:40;126.45;;;52.15;;
58468;SDS011;44257;44.804;10.220;2024-01-27T08:16:07;114.38;;;54.33;;
58468;SDS011;44257;44.804;10.220;2024-01-27T08:18:40;320.20;;;76.13;;
58468;SDS011;44257;44.804;10.220;2024-01-27T08:21:10;127.70;;;52.85;;
58468;SDS011;44257;44.804;10.220;2024-01-27T08:23:39;177.95;;;57.95;;
58468;SDS011;44257;44.804;10.220;2024-01-27T08:26:05;99.88;;;49.58;;
58468;SDS011;44257;44.804;10.220;2024-01-27T08:28:31;101.85;;;52.85;;
58468;SDS011;44257;44.804;10.220;2024-01-27T08:30:56;144.93;;;58.50;;
58468;SDS011;44257;44.804;10.220;2024-01-27T08:33:25;100.25;;;56.00;;
58468;SDS011;44257;44.804;10.220;2024-01-27T08:35:50;108.10;;;57.22;;
58468;SDS011;44257;44.804;10.220;2024-01-27T08:38:16;108.15;;;55.30;;
58468;SDS011;44257;44.804;10.220;2024-01-27T08:40:42;104.30;;;55.25;;
58468;SDS011;44257;44.804;10.220;2024-01-27T08:43:08;108.72;;;54.30;;
58468;SDS011;44257;44.804;10.220;2024-01-27T08:45:36;101.65;;;52.05;;
58468;SDS011;44257;44.804;10.220;2024-01-27T08:48:03;99.80;;;52.85;;
58468;SDS011;44257;44.804;10.220;2024-01-27T08:50:30;115.85;;;53.75;;
58468;SDS011;44257;44.804;10.220;2024-01-27T08:52:55;97.00;;;48.20;;
58468;SDS011;44257;44.804;10.220;2024-01-27T08:55:21;111.22;;;48.63;;
58468;SDS011;44257;44.804;10.220;2024-01-27T08:57:49;104.65;;;48.60;;
58468;SDS011;44257;44.804;10.220;2024-01-27T09:00:15;92.60;;;50.20;;
58468;SDS011;44257;44.804;10.220;2024-01-27T09:02:44;111.78;;;47.58;;
58468;SDS011;44257;44.804;10.220;2024-01-27T09:05:10;92.45;;;48.90;;
58468;SDS011;44257;44.804;10.220;2024-01-27T09:07:36;85.65;;;46.20;;
58468;SDS011;44257;44.804;10.220;2024-01-27T09:10:02;104.13;;;45.22;;
58468;SDS011;44257;44.804;10.220;2024-01-27T09:12:29;104.65;;;47.70;;
58468;SDS011;44257;44.804;10.220;2024-01-27T09:14:55;116.00;;;50.97;;
58468;SDS011;44257;44.804;10.220;2024-01-27T09:17:21;114.68;;;46.42;;
58468;SDS011;44257;44.804;10.220;2024-01-27T09:19:47;136.88;;;46.85;;
58468;SDS011;44257;44.804;10.220;2024-01-27T09:22:12;123.88;;;47.08;;
58468;SDS011;44257;44.804;10.220;2024-01-27T09:24:39;152.77;;;51.15;;
58468;SDS011;44257;44.804;10.220;2024-01-27T09:27:05;144.50;;;53.53;;
58468;SDS011;44257;44.804;10.220;2024-01-27T09:29:31;152.65;;;51.88;;
58468;SDS011;44257;44.804;10.220;2024-01-27T09:31:57;138.93;;;54.10;;
58468;SDS011;44257;44.804;10.220;2024-01-27T09:34:23;179.57;;;60.85;;
58468;SDS011;44257;44.804;10.220;2024-01-27T09:36:49;248.07;;;61.20;;
58468;SDS011;44257;44.804;10.220;2024-01-27T09:39:15;276.33;;;65.22;;
58468;SDS011;44257;44.804;10.220;2024-01-27T09:41:40;267.70;;;65.68;;
58468;SDS011;44257;44.804;10.220;2024-01-27T09:44:07;206.27;;;56.25;;
58468;SDS011;44257;44.804;10.220;2024-01-27T09:46:37;238.75;;;66.70;;
58468;SDS011;44257;44.804;10.220;2024-01-27T09:49:03;191.68;;;55.70;;
58468;SDS011;44257;44.804;10.220;2024-01-27T09:51:30;181.23;;;62.22;;
58468;SDS011;44257;44.804;10.220;2024-01-27T09:53:56;121.57;;;58.08;;
58468;SDS011;44257;44.804;10.220;2024-01-27T09:56:23;152.60;;;58.25;;
58468;SDS011;44257;44.804;10.220;2024-01-27T09:58:50;182.77;;;60.83;;
58468;SDS011;44257;44.804;10.220;2024-01-27T10:01:20;171.45;;;54.88;;
58468;SDS011;44257;44.804;10.220;2024-01-27T10:03:49;97.65;;;53.17;;
58468;SDS011;44257;44.804;10.220;2024-01-27T10:06:15;179.57;;;56.60;;
58468;SDS011;44257;44.804;10.220;2024-01-27T10:08:41;181.73;;;56.95;;
58468;SDS011;44257;44.804;10.220;2024-01-27T10:11:16;155.48;;;56.13;;
58468;SDS011;44257;44.804;10.220;2024-01-27T10:13:44;199.30;;;55.35;;
58468;SDS011;44257;44.804;10.220;2024-01-27T10:16:10;223.98;;;53.17;;
58468;SDS011;44257;44.804;10.220;2024-01-27T10:18:37;174.38;;;52.13;;
58468;SDS011;44257;44.804;10.220;2024-01-27T10:21:18;96.88;;;50.38;;
58468;SDS011;44257;44.804;10.220;2024-01-27T10:23:46;105.78;;;50.25;;
58468;SDS011;44257;44.804;10.220;2024-01-27T10:26:12;140.75;;;49.35;;
58468;SDS011;44257;44.804;10.220;2024-01-27T10:28:38;140.50;;;49.13;;
58468;SDS011;44257;44.804;10.220;2024-01-27T10:31:10;115.18;;;48.40;;
58468;SDS011;44257;44.804;10.220;2024-01-27T10:33:37;198.35;;;49.97;;
58468;SDS011;44257;44.804;10.220;2024-01-27T10:36:03;133.13;;;52.00;;
58468;SDS011;44257;44.804;10.220;2024-01-27T10:38:38;70.32;;;46.00;;
58468;SDS011;44257;44.804;10.220;2024-01-27T10:41:07;117.85;;;47.80;;
58468;SDS011;44257;44.804;10.220;2024-01-27T10:43:38;163.50;;;44.63;;
58468;SDS011;44257;44.804;10.220;2024-01-27T10:46:05;138.02;;;43.53;;
58468;SDS011;44257;44.804;10.220;2024-01-27T10:48:35;176.25;;;48.40;;
58468;SDS011;44257;44.804;10.220;2024-01-27T10:51:08;75.78;;;44.05;;
58468;SDS011;44257;44.804;10.220;2024-01-27T10:53:35;134.23;;;44.75;;
58468;SDS011;44257;44.804;10.220;2024-01-27T10:56:05;85.88;;;44.88;;
58468;SDS011;44257;44.804;10.220;2024-01-27T10:58:35;77.00;;;44.45;;
58468;SDS011;44257;44.804;10.220;2024-01-27T11:01:09;78.72;;;42.45;;
58468;SDS011;44257;44.804;10.220;2024-01-27T11:03:38;85.13;;;41.90;;
58468;SDS011;44257;44.804;10.220;2024-01-27T11:06:07;110.10;;;44.45;;
58468;SDS011;44257;44.804;10.220;2024-01-27T11:08:33;105.90;;;45.80;;
58468;SDS011;44257;44.804;10.220;2024-01-27T11:11:00;105.35;;;45.55;;
58468;SDS011;44257;44.804;10.220;2024-01-27T11:13:29;63.05;;;44.80;;
58468;SDS011;44257;44.804;10.220;2024-01-27T11:15:57;86.13;;;41.72;;
58468;SDS011;44257;44.804;10.220;2024-01-27T11:18:26;119.20;;;42.75;;
58468;SDS011;44257;44.804;10.220;2024-01-27T11:20:53;57.58;;;42.85;;
58468;SDS011;44257;44.804;10.220;2024-01-27T11:23:19;71.53;;;42.03;;
58468;SDS011;44257;44.804;10.220;2024-01-27T11:25:45;69.55;;;41.90;;
58468;SDS011;44257;44.804;10.220;2024-01-27T11:28:12;56.92;;;38.70;;
58468;SDS011;44257;44.804;10.220;2024-01-27T11:30:46;65.93;;;38.72;;
58468;SDS011;44257;44.804;10.220;2024-01-27T11:33:13;79.50;;;40.60;;
58468;SDS011;44257;44.804;10.220;2024-01-27T11:35:39;65.65;;;44.03;;
58468;SDS011;44257;44.804;10.220;2024-01-27T11:38:05;55.55;;;40.72;;
58468;SDS011;44257;44.804;10.220;2024-01-27T11:40:31;56.72;;;40.92;;
58468;SDS011;44257;44.804;10.220;2024-01-27T11:42:58;70.05;;;41.00;;
58468;SDS011;44257;44.804;10.220;2024-01-27T11:45:26;76.00;;;39.22;;
58468;SDS011;44257;44.804;10.220;2024-01-27T11:47:55;62.88;;;41.10;;
58468;SDS011;44257;44.804;10.220;2024-01-27T11:50:22;56.60;;;40.85;;
58468;SDS011;44257;44.804;10.220;2024-01-27T11:52:48;53.83;;;40.05;;
58468;SDS011;44257;44.804;10.220;2024-01-27T11:55:14;53.22;;;39.20;;
58468;SDS011;44257;44.804;10.220;2024-01-27T11:57:43;65.65;;;41.35;;
58468;SDS011;44257;44.804;10.220;2024-01-27T12:00:09;56.65;;;40.40;;
58468;SDS011;44257;44.804;10.220;2024-01-27T12:02:36;53.97;;;40.63;;
58468;SDS011;44257;44.804;10.220;2024-01-27T12:05:06;51.20;;;38.15;;
58468;SDS011;44257;44.804;10.220;2024-01-27T12:07:33;54.70;;;38.53;;
58468;SDS011;44257;44.804;10.220;2024-01-27T12:09:59;52.70;;;39.88;;
58468;SDS011;44257;44.804;10.220;2024-01-27T12:12:25;54.13;;;37.78;;
58468;SDS011;44257;44.804;10.220;2024-01-27T12:14:51;51.50;;;38.05;;
58468;SDS011;44257;44.804;10.220;2024-01-27T12:17:18;62.80;;;43.70;;
58468;SDS011;44257;44.804;10.220;2024-01-27T12:19:49;59.97;;;43.55;;
58468;SDS011;44257;44.804;10.220;2024-01-27T12:24:48;62.75;;;44.10;;
58468;SDS011;44257;44.804;10.220;2024-01-27T12:27:15;55.42;;;39.80;;
58468;SDS011;44257;44.804;10.220;2024-01-27T12:29:42;52.78;;;40.58;;
58468;SDS011;44257;44.804;10.220;2024-01-27T12:32:08;54.05;;;40.92;;
58468;SDS011;44257;44.804;10.220;2024-01-27T12:34:41;55.75;;;41.80;;
58468;SDS011;44257;44.804;10.220;2024-01-27T12:37:08;54.38;;;40.92;;
58468;SDS011;44257;44.804;10.220;2024-01-27T12:39:36;54.10;;;41.08;;
58468;SDS011;44257;44.804;10.220;2024-01-27T12:42:02;52.17;;;39.65;;
58468;SDS011;44257;44.804;10.220;2024-01-27T12:44:28;53.17;;;38.47;;
58468;SDS011;44257;44.804;10.220;2024-01-27T12:46:54;55.50;;;41.10;;
58468;SDS011;44257;44.804;10.220;2024-01-27T12:49:19;55.45;;;42.28;;
58468;SDS011;44257;44.804;10.220;2024-01-27T12:51:45;54.15;;;39.50;;
58468;SDS011;44257;44.804;10.220;2024-01-27T12:54:12;58.55;;;43.03;;
58468;SDS011;44257;44.804;10.220;2024-01-27T12:56:38;60.08;;;44.10;;
58468;SDS011;44257;44.804;10.220;2024-01-27T12:59:04;61.13;;;43.72;;
58468;SDS011;44257;44.804;10.220;2024-01-27T13:01:31;56.92;;;41.83;;
58468;SDS011;44257;44.804;10.220;2024-01-27T13:03:58;54.03;;;40.67;;
58468;SDS011;44257;44.804;10.220;2024-01-27T13:06:24;56.60;;;41.17;;
58468;SDS011;44257;44.804;10.220;2024-01-27T13:08:50;59.90;;;43.47;;
58468;SDS011;44257;44.804;10.220;2024-01-27T13:11:17;70.18;;;48.83;;
58468;SDS011;44257;44.804;10.220;2024-01-27T13:13:45;66.35;;;46.17;;
58468;SDS011;44257;44.804;10.220;2024-01-27T13:16:11;60.35;;;43.67;;
58468;SDS011;44257;44.804;10.220;2024-01-27T13:18:37;62.35;;;45.70;;
58468;SDS011;44257;44.804;10.220;2024-01-27T13:21:03;62.65;;;45.08;;
58468;SDS011;44257;44.804;10.220;2024-01-27T13:23:31;57.70;;;43.05;;
58468;SDS011;44257;44.804;10.220;2024-01-27T13:25:58;53.10;;;40.67;;
58468;SDS011;44257;44.804;10.220;2024-01-27T13:28:24;58.63;;;42.00;;
58468;SDS011;44257;44.804;10.220;2024-01-27T13:30:50;53.65;;;39.55;;
58468;SDS011;44257;44.804;10.220;2024-01-27T13:33:16;52.05;;;39.50;;
58468;SDS011;44257;44.804;10.220;2024-01-27T13:35:42;54.65;;;39.10;;
58468;SDS011;44257;44.804;10.220;2024-01-27T13:38:12;53.85;;;41.30;;
58468;SDS011;44257;44.804;10.220;2024-01-27T13:40:38;54.45;;;40.45;;
58468;SDS011;44257;44.804;10.220;2024-01-27T13:43:04;54.40;;;40.92;;
58468;SDS011;44257;44.804;10.220;2024-01-27T13:45:30;57.50;;;41.33;;
58468;SDS011;44257;44.804;10.220;2024-01-27T13:47:57;58.88;;;42.97;;
58468;SDS011;44257;44.804;10.220;2024-01-27T13:50:23;57.47;;;43.58;;
58468;SDS011;44257;44.804;10.220;2024-01-27T13:52:52;53.13;;;42.17;;
58468;SDS011;44257;44.804;10.220;2024-01-27T13:55:18;51.35;;;38.53;;
58468;SDS011;44257;44.804;10.220;2024-01-27T13:57:44;47.72;;;37.15;;
58468;SDS011;44257;44.804;10.220;2024-01-27T14:00:10;49.78;;;37.90;;
58468;SDS011;44257;44.804;10.220;2024-01-27T14:02:36;49.95;;;39.40;;
58468;SDS011;44257;44.804;10.220;2024-01-27T14:05:03;50.50;;;41.65;;